Terminal Aerodrome Forecast
Issued by NWS

Home | Current Version | Previous Version | Text Only | Print | Product List | Glossary On
Versions: 1 2 3 4 5 6 7 8 9 10 11 12 13 14 15 16 17 18 19 20 21 22 23 24 25 26 27 28 29 30 31
000
FTUS43 KDLH 131140
TAFBRD
TAF
KBRD 131140Z 1312/1412 35005KT 3SM -SN BKN024 OVC030
      TEMPO 1312/1313 1 1/2SM -SN BR OVC028
     FM131500 34013G21KT P6SM VCSH OVC015
     FM131800 35013G22KT P6SM OVC025
     FM140200 34008KT P6SM OVC015=

USA.gov is the U.S. government's official web portal to all federal, state and local government web resources and services.